Impacts METAR Board
IDs:

KLAX - Los Angeles Intl, CA, US

Updated at: 1100 UTC 30 Oct 2020
Potential Impact None Slight Moderate High
Time 29/23Z 30/00Z 30/01Z 30/02Z 30/03Z 30/04Z 30/05Z 30/06Z 30/07Z 30/08Z 30/09Z 30/10Z 30/11Z
Temp71 69 68 65 66 65 63 64 64 61 58 57 57
Dewpt53 51 50 53 49 50 50 51 49 50 49 48 48
Altim29.94 29.95 29.94 29.95 29.97 29.98 29.98 29.99 29.99 29.99 29.98 29.98 29.97
VIS10 10 10 10 10 10 10 10 10 10 10 10 10
CIG-- -- -- -- -- -- -- -- -- -- -- -- --
CoverFEWFEWFEWFEWCLRCLRCLRCLRCLRCLRCLRCLRFEW
FltCatVFRVFRVFRVFRVFRVFRVFRVFRVFRVFRVFRVFRVFR
WX--------------------------
WDir26028029025024026090150130001100
WSpd10 9 8 7 5 3 5 3 5 0 0 5 0
WGst-- -- -- -- -- -- -- -- -- -- -- -- --
Raw hourly METARs
KLAX 292253Z 26010KT 10SM FEW200 22/12 A2994 RMK AO2 SLP139 T02170117
KLAX 292353Z 28009KT 10SM FEW200 21/11 A2995 RMK AO2 SLP141 T02060106 10228 20206 55008
KLAX 300053Z 29008KT 10SM FEW200 20/10 A2994 RMK AO2 SLP138 T02000100
KLAX 300153Z 25007KT 10SM FEW200 18/12 A2995 RMK AO2 SLP142 T01830117
KLAX 300253Z 24005KT 10SM CLR 19/09 A2997 RMK AO2 SLP147 T01890094 53006
KLAX 300353Z 26003KT 10SM CLR 18/10 A2998 RMK AO2 SLP148 T01830100
KLAX 300453Z 09005KT 10SM CLR 17/10 A2998 RMK AO2 SLP150 T01720100
KLAX 300553Z 15003KT 10SM CLR 18/11 A2999 RMK AO2 SLP152 T01780106 10206 20167 51006
KLAX 300653Z 13005KT 10SM CLR 18/09 A2999 RMK AO2 SLP153 T01780094
KLAX 300753Z 00000KT 10SM CLR 16/10 A2999 RMK AO2 SLP154 T01610100 402280128
KLAX 300853Z 00000KT 10SM CLR 14/09 A2998 RMK AO2 SLP150 T01440094 58002
KLAX 300953Z 11005KT 10SM CLR 14/09 A2998 RMK AO2 SLP151 T01390089
KLAX 301053Z 00000KT 10SM FEW003 FEW008 14/09 A2997 RMK AO2 SLP148 T01390089



Page loaded:  11:10 UTC  |   04:10 AM Pacific  |   05:10 AM Mountain  |   06:10 AM Central  |   07:10 AM Eastern

 

ADVISORIES

FORECASTS

FORECASTS

OBSERVATIONS

USER TOOLS

ABOUT US